createdAt,value
2019-03-20T00:01:46.875Z,6.64
2019-03-20T00:04:18.515Z,6.74
2019-03-20T00:06:49.776Z,6.78
2019-03-20T00:09:21.148Z,6.76
2019-03-20T00:11:52.642Z,6.70
2019-03-20T00:14:24.527Z,6.67
2019-03-20T00:16:55.878Z,6.61
2019-03-20T00:19:27.359Z,6.73
2019-03-20T00:21:58.778Z,6.71
2019-03-20T00:24:30.174Z,6.74
2019-03-20T00:27:01.593Z,6.72
2019-03-20T00:29:32.852Z,6.65
2019-03-20T00:32:04.967Z,6.62
2019-03-20T00:34:36.314Z,6.61
2019-03-20T00:37:07.828Z,6.58
2019-03-20T00:39:39.114Z,6.51
2019-03-20T00:42:10.907Z,6.52
2019-03-20T00:44:42.171Z,6.48
2019-03-20T00:47:13.470Z,6.58
2019-03-20T00:49:44.767Z,6.49
2019-03-20T00:52:16.072Z,6.46
2019-03-20T00:54:47.472Z,6.50
2019-03-20T00:57:18.818Z,6.56
2019-03-20T00:59:50.150Z,6.58
2019-03-20T01:02:21.575Z,6.51
2019-03-20T01:04:52.901Z,6.47
2019-03-20T01:07:24.115Z,6.34
2019-03-20T01:09:55.412Z,6.33
2019-03-20T01:12:26.888Z,6.28
2019-03-20T01:14:58.215Z,6.24
2019-03-20T01:17:29.382Z,6.23
2019-03-20T01:20:00.812Z,6.06
2019-03-20T01:22:33.343Z,5.96
2019-03-20T01:25:07.047Z,6.00
2019-03-20T01:27:38.298Z,6.00
2019-03-20T01:30:15.161Z,5.97
2019-03-20T01:32:46.245Z,5.80
2019-03-20T01:35:23.802Z,5.79
2019-03-20T01:37:52.500Z,5.58
2019-03-20T01:40:24.143Z,5.51
2019-03-20T01:42:55.364Z,5.51
2019-03-20T01:45:26.749Z,5.48
2019-03-20T01:47:59.520Z,5.45
2019-03-20T01:50:30.929Z,5.40
2019-03-20T01:53:03.825Z,5.30
2019-03-20T01:55:34.958Z,5.18
2019-03-20T01:58:06.202Z,5.17
2019-03-20T02:00:37.853Z,5.08
2019-03-20T02:03:09.653Z,5.12
2019-03-20T02:05:40.835Z,5.27
2019-03-20T02:08:13.010Z,5.35
2019-03-20T02:10:44.376Z,5.29
2019-03-20T02:13:15.627Z,5.30
2019-03-20T02:15:50.379Z,5.35
2019-03-20T02:18:21.577Z,5.31
2019-03-20T02:20:52.948Z,5.39
2019-03-20T02:23:24.171Z,5.40
2019-03-20T02:25:57.136Z,5.38
2019-03-20T02:28:28.435Z,5.41
2019-03-20T02:30:59.730Z,5.30
2019-03-20T02:33:30.916Z,5.03
2019-03-20T02:36:02.278Z,4.92
2019-03-20T02:38:33.562Z,5.13
2019-03-20T02:41:05.011Z,5.35
2019-03-20T02:43:36.333Z,5.46
2019-03-20T02:46:07.531Z,5.29
2019-03-20T02:48:38.951Z,5.27
2019-03-20T02:51:10.232Z,5.33
2019-03-20T02:53:41.611Z,5.37
2019-03-20T02:56:12.852Z,5.39
2019-03-20T02:58:44.226Z,5.39
2019-03-20T03:01:15.508Z,5.34
2019-03-20T03:03:46.890Z,5.36
2019-03-20T03:06:18.227Z,5.34
2019-03-20T03:08:52.274Z,5.36
2019-03-20T03:11:23.726Z,5.35
2019-03-20T03:13:55.018Z,5.34
2019-03-20T03:16:26.483Z,5.27
2019-03-20T03:18:57.951Z,5.22
2019-03-20T03:21:29.393Z,5.12
2019-03-20T03:24:00.640Z,5.19
2019-03-20T03:26:32.143Z,5.27
2019-03-20T03:29:03.520Z,5.08
2019-03-20T03:31:35.419Z,5.02
2019-03-20T03:34:06.618Z,5.05
2019-03-20T03:36:37.885Z,5.08
2019-03-20T03:39:12.618Z,5.05
2019-03-20T03:41:44.079Z,5.01
2019-03-20T03:44:15.613Z,4.99
2019-03-20T03:46:47.609Z,5.09
2019-03-20T03:49:19.137Z,5.04
2019-03-20T03:51:51.407Z,5.01
2019-03-20T03:54:22.686Z,4.94
2019-03-20T03:56:54.310Z,4.96
2019-03-20T03:59:25.668Z,4.89
2019-03-20T04:01:58.632Z,4.96
2019-03-20T04:04:29.941Z,4.73
2019-03-20T04:07:01.560Z,4.44
2019-03-20T04:09:33.878Z,4.58
2019-03-20T04:12:22.113Z,4.32
2019-03-20T04:14:53.861Z,4.37
2019-03-20T04:17:28.459Z,4.38
2019-03-20T04:19:59.823Z,4.45
2019-03-20T04:22:31.124Z,4.41
2019-03-20T04:25:04.039Z,4.39
2019-03-20T04:27:35.517Z,4.42
2019-03-20T04:30:09.791Z,4.45
2019-03-20T04:32:41.077Z,4.44
2019-03-20T04:35:13.347Z,4.47
2019-03-20T04:37:44.833Z,4.37
2019-03-20T04:40:18.337Z,4.30
2019-03-20T04:42:49.490Z,4.32
2019-03-20T04:45:20.742Z,4.30
2019-03-20T04:47:52.035Z,4.13
2019-03-20T04:50:23.590Z,4.08
2019-03-20T04:53:00.844Z,4.04
2019-03-20T04:55:32.277Z,3.90
2019-03-20T04:58:03.974Z,3.69
2019-03-20T05:00:35.207Z,3.75
2019-03-20T05:03:07.646Z,3.66
2019-03-20T05:05:38.963Z,3.58
2019-03-20T05:08:10.276Z,3.54
2019-03-20T05:10:43.018Z,3.56
2019-03-20T05:13:14.119Z,3.41
2019-03-20T05:15:46.354Z,3.46
2019-03-20T05:18:17.978Z,3.60
2019-03-20T05:20:49.641Z,3.67
2019-03-20T05:23:20.831Z,3.49
2019-03-20T05:25:52.147Z,3.47
2019-03-20T05:28:24.299Z,3.66
2019-03-20T05:30:55.699Z,3.49
2019-03-20T05:33:27.335Z,3.25
2019-03-20T05:35:59.686Z,3.38
2019-03-20T05:38:31.013Z,3.49
2019-03-20T05:41:03.198Z,3.55
2019-03-20T05:43:35.804Z,3.76
2019-03-20T05:46:08.061Z,3.77
2019-03-20T05:48:39.477Z,3.76
2019-03-20T05:51:11.451Z,3.56
2019-03-20T05:53:44.062Z,3.24
2019-03-20T05:56:15.321Z,3.43
2019-03-20T05:58:46.539Z,3.54
2019-03-20T06:01:17.870Z,3.56
2019-03-20T06:03:49.118Z,3.49
2019-03-20T06:06:20.508Z,3.38
2019-03-20T06:08:51.685Z,3.40
2019-03-20T06:11:23.323Z,3.32
2019-03-20T06:13:59.018Z,3.66
2019-03-20T06:16:30.672Z,3.58
2019-03-20T06:19:02.216Z,3.70
2019-03-20T06:21:33.829Z,3.86
2019-03-20T06:24:05.188Z,3.96
2019-03-20T06:26:38.804Z,4.03
2019-03-20T06:29:10.123Z,3.98
2019-03-20T06:31:43.880Z,3.79
2019-03-20T06:34:15.308Z,3.60
2019-03-20T06:36:46.836Z,3.52
2019-03-20T06:39:17.932Z,3.50
2019-03-20T06:41:49.256Z,3.41
2019-03-20T06:44:20.577Z,3.34
2019-03-20T06:46:52.287Z,3.42
2019-03-20T06:49:23.917Z,3.45
2019-03-20T06:51:56.486Z,3.54
2019-03-20T06:54:28.161Z,3.45
2019-03-20T06:57:01.900Z,3.43
2019-03-20T06:59:39.040Z,3.43
2019-03-20T07:02:10.365Z,3.72
2019-03-20T07:05:04.449Z,3.91
2019-03-20T07:07:44.188Z,3.94
2019-03-20T07:10:19.060Z,3.91
2019-03-20T07:12:50.434Z,3.60
2019-03-20T07:15:21.586Z,3.48
2019-03-20T07:17:52.885Z,3.66
2019-03-20T07:20:24.303Z,3.71
2019-03-20T07:22:56.106Z,3.81
2019-03-20T07:25:30.090Z,3.67
2019-03-20T07:28:01.482Z,3.76
2019-03-20T07:30:33.207Z,3.94
2019-03-20T07:33:04.696Z,3.94
2019-03-20T07:35:35.835Z,4.03
2019-03-20T07:38:07.364Z,3.97
2019-03-20T07:40:38.478Z,4.27
2019-03-20T07:43:09.835Z,4.21
2019-03-20T07:45:40.993Z,4.28
2019-03-20T07:48:21.628Z,4.42
2019-03-20T07:50:45.300Z,4.55
2019-03-20T07:53:18.791Z,4.44
2019-03-20T07:55:51.910Z,4.49
2019-03-20T07:58:25.081Z,4.50
2019-03-20T08:00:56.997Z,4.71
2019-03-20T08:03:30.137Z,4.94
2019-03-20T08:06:03.495Z,5.20
2019-03-20T08:08:35.827Z,5.22
2019-03-20T08:11:06.972Z,5.30
2019-03-20T08:13:38.451Z,5.46
2019-03-20T08:16:10.094Z,5.58
2019-03-20T08:18:41.375Z,5.57
2019-03-20T08:21:12.643Z,5.67
2019-03-20T08:23:44.502Z,5.83
2019-03-20T08:26:15.652Z,5.71
2019-03-20T08:28:47.980Z,5.82
2019-03-20T08:31:19.202Z,5.73
2019-03-20T08:33:53.528Z,5.79
2019-03-20T08:36:25.028Z,5.86
2019-03-20T08:38:56.518Z,5.94
2019-03-20T08:41:29.273Z,5.99
2019-03-20T08:44:01.045Z,6.05
2019-03-20T08:46:32.331Z,6.29
2019-03-20T08:49:03.603Z,6.48
2019-03-20T08:51:34.985Z,6.53
2019-03-20T08:54:06.490Z,6.63
2019-03-20T08:56:37.627Z,6.66
2019-03-20T08:59:09.606Z,6.79
2019-03-20T09:01:41.120Z,6.98
2019-03-20T09:04:13.557Z,7.11
2019-03-20T09:06:44.814Z,7.24
2019-03-20T09:09:16.171Z,7.44
2019-03-20T09:11:47.860Z,7.66
2019-03-20T09:14:19.223Z,7.80
2019-03-20T09:16:50.777Z,7.87
2019-03-20T09:19:24.041Z,7.93
2019-03-20T09:21:57.718Z,8.00
2019-03-20T09:24:31.422Z,8.19
2019-03-20T09:27:03.019Z,8.33
2019-03-20T09:29:36.255Z,8.03
2019-03-20T09:32:08.165Z,8.15
2019-03-20T09:34:40.560Z,8.39
2019-03-20T09:37:12.117Z,8.62
2019-03-20T09:39:45.066Z,8.39
2019-03-20T09:42:16.451Z,8.72
2019-03-20T09:44:48.146Z,8.94
2019-03-20T09:47:20.131Z,9.20
2019-03-20T09:49:51.575Z,9.36
2019-03-20T09:52:22.879Z,9.60
2019-03-20T09:54:54.458Z,9.64
2019-03-20T09:57:26.202Z,9.73
2019-03-20T09:59:58.029Z,9.69
2019-03-20T10:02:31.017Z,9.60
2019-03-20T10:05:04.197Z,9.81
2019-03-20T10:07:35.561Z,9.99
2019-03-20T10:10:25.071Z,9.93
2019-03-20T10:13:07.967Z,9.71
2019-03-20T10:15:39.507Z,9.81
2019-03-20T10:18:11.487Z,9.71
2019-03-20T10:20:42.758Z,9.90
2019-03-20T10:23:14.018Z,9.89
2019-03-20T10:25:45.327Z,9.93
2019-03-20T10:28:16.484Z,10.04
2019-03-20T10:30:47.755Z,10.10
2019-03-20T10:33:19.147Z,10.07
2019-03-20T10:35:50.758Z,10.30
2019-03-20T10:38:22.033Z,10.37
2019-03-20T10:40:53.459Z,10.36
2019-03-20T10:43:25.545Z,10.34
2019-03-20T10:45:56.947Z,10.47
2019-03-20T10:48:28.120Z,10.61
2019-03-20T10:50:59.490Z,10.49
2019-03-20T10:53:30.994Z,10.50
2019-03-20T10:56:02.405Z,10.64
2019-03-20T10:58:33.817Z,10.56
2019-03-20T11:01:05.193Z,10.66
2019-03-20T11:03:36.743Z,10.77
2019-03-20T11:06:08.336Z,10.92
2019-03-20T11:08:40.677Z,10.89
2019-03-20T11:11:12.489Z,10.96
2019-03-20T11:13:43.816Z,11.02
2019-03-20T11:16:15.514Z,11.01
2019-03-20T11:18:48.481Z,11.08
2019-03-20T11:21:21.400Z,11.19
2019-03-20T11:23:54.461Z,11.24
2019-03-20T11:26:26.695Z,11.22
2019-03-20T11:28:58.722Z,11.26
2019-03-20T11:31:31.118Z,11.27
2019-03-20T11:34:03.716Z,11.37
2019-03-20T11:36:35.167Z,11.29
2019-03-20T11:39:08.864Z,11.24
2019-03-20T11:41:40.358Z,11.25
2019-03-20T11:44:13.231Z,11.45
2019-03-20T11:46:44.913Z,11.53
2019-03-20T11:49:16.168Z,11.71
2019-03-20T11:51:47.541Z,11.76
2019-03-20T11:54:19.680Z,11.76
2019-03-20T11:56:51.109Z,11.65
2019-03-20T11:59:24.185Z,11.60
2019-03-20T12:01:55.635Z,11.60
2019-03-20T12:04:28.248Z,11.81
2019-03-20T12:06:59.429Z,11.83
2019-03-20T12:09:40.725Z,11.94
2019-03-20T12:12:04.267Z,12.02
2019-03-20T12:14:38.652Z,12.00
2019-03-20T12:17:11.909Z,12.04
2019-03-20T12:19:45.403Z,12.10
2019-03-20T12:22:18.114Z,12.05
2019-03-20T12:24:49.955Z,12.04
2019-03-20T12:27:21.633Z,12.08
2019-03-20T12:29:52.855Z,12.25
2019-03-20T12:32:24.232Z,12.26
2019-03-20T12:34:55.405Z,12.26
2019-03-20T12:37:26.810Z,12.25
2019-03-20T12:39:58.301Z,12.25
2019-03-20T12:42:29.707Z,12.35
2019-03-20T12:45:01.689Z,12.40
2019-03-20T12:47:33.450Z,12.56
2019-03-20T12:50:09.166Z,12.65
2019-03-20T12:52:40.895Z,12.62
2019-03-20T12:55:17.615Z,12.47
2019-03-20T12:57:49.720Z,12.48
2019-03-20T13:00:27.450Z,12.57
2019-03-20T13:02:58.934Z,12.60
2019-03-20T13:05:30.256Z,12.74
2019-03-20T13:08:05.813Z,12.84
2019-03-20T13:10:34.777Z,12.92
2019-03-20T13:13:07.841Z,12.92
2019-03-20T13:15:39.318Z,12.98
2019-03-20T13:18:13.581Z,12.94
2019-03-20T13:20:47.086Z,12.90
2019-03-20T13:23:36.413Z,13.08
2019-03-20T13:26:08.116Z,13.02
2019-03-20T13:28:41.120Z,13.18
2019-03-20T13:31:18.537Z,13.09
2019-03-20T13:33:49.799Z,13.20
2019-03-20T13:36:21.275Z,13.13
2019-03-20T13:38:52.542Z,13.01
2019-03-20T13:41:23.685Z,13.05
2019-03-20T13:43:55.060Z,13.08
2019-03-20T13:46:27.938Z,13.03
2019-03-20T13:49:00.198Z,13.13
2019-03-20T13:51:31.313Z,13.15
2019-03-20T13:54:02.815Z,13.17
2019-03-20T13:56:34.011Z,13.14
2019-03-20T13:59:05.704Z,13.13
2019-03-20T14:01:37.066Z,13.19
2019-03-20T14:04:09.539Z,13.16
2019-03-20T14:06:41.261Z,13.25
2019-03-20T14:09:12.919Z,13.33
2019-03-20T14:11:44.179Z,13.28
2019-03-20T14:14:15.812Z,13.24
2019-03-20T14:16:48.490Z,13.23
2019-03-20T14:19:19.816Z,13.20
2019-03-20T14:21:51.148Z,13.10
2019-03-20T14:24:23.856Z,13.10
2019-03-20T14:26:55.324Z,13.11
2019-03-20T14:29:26.785Z,13.10
2019-03-20T14:31:58.080Z,13.12
2019-03-20T14:34:29.718Z,13.17
2019-03-20T14:37:02.278Z,13.17
2019-03-20T14:39:33.614Z,13.06
2019-03-20T14:42:05.955Z,13.01
2019-03-20T14:44:37.932Z,12.99
2019-03-20T14:47:09.283Z,12.92
2019-03-20T14:49:43.187Z,12.90
2019-03-20T14:52:14.599Z,12.90
2019-03-20T14:54:46.808Z,12.86
2019-03-20T14:57:18.402Z,12.78
2019-03-20T14:59:53.143Z,12.68
2019-03-20T15:02:25.138Z,12.59
2019-03-20T15:04:56.697Z,12.50
2019-03-20T15:07:28.151Z,12.42
2019-03-20T15:10:01.352Z,12.36
2019-03-20T15:12:34.323Z,12.29
2019-03-20T15:15:24.310Z,12.22
2019-03-20T15:17:56.352Z,12.16
2019-03-20T15:20:28.509Z,12.13
2019-03-20T15:23:01.693Z,12.19
2019-03-20T15:25:35.043Z,12.28
2019-03-20T15:28:06.335Z,11.92
2019-03-20T15:30:38.214Z,11.81
2019-03-20T15:33:09.557Z,11.72
2019-03-20T15:35:42.657Z,11.72
2019-03-20T15:38:14.940Z,11.68
2019-03-20T15:40:55.910Z,11.62
2019-03-20T15:43:20.329Z,11.57
2019-03-20T15:45:52.947Z,11.54
2019-03-20T15:48:24.233Z,11.44
2019-03-20T15:50:55.641Z,11.36
2019-03-20T15:53:27.188Z,11.35
2019-03-20T15:55:58.654Z,11.29
2019-03-20T15:58:30.194Z,11.14
2019-03-20T16:01:03.062Z,10.80
2019-03-20T16:03:43.140Z,10.70
2019-03-20T16:06:14.474Z,10.63
2019-03-20T16:08:46.178Z,10.59
2019-03-20T16:11:19.536Z,10.53
2019-03-20T16:13:50.748Z,10.47
2019-03-20T16:16:21.992Z,10.37
2019-03-20T16:18:53.724Z,10.26
2019-03-20T16:21:25.268Z,10.29
2019-03-20T16:23:58.068Z,10.15
2019-03-20T16:26:32.048Z,10.18
2019-03-20T16:29:05.811Z,10.13
2019-03-20T16:31:38.336Z,10.09
2019-03-20T16:34:11.837Z,10.04
2019-03-20T16:36:43.417Z,10.09
2019-03-20T16:39:14.903Z,9.98
2019-03-20T16:41:49.243Z,9.97
2019-03-20T16:44:20.570Z,9.89
2019-03-20T16:46:52.016Z,9.79
2019-03-20T16:49:23.294Z,9.72
2019-03-20T16:51:56.341Z,9.65
2019-03-20T16:54:28.012Z,9.59
2019-03-20T16:56:59.900Z,9.63
2019-03-20T16:59:31.662Z,9.59
2019-03-20T17:02:04.551Z,9.56
2019-03-20T17:04:35.861Z,9.51
2019-03-20T17:07:07.216Z,9.43
2019-03-20T17:09:38.492Z,9.40
2019-03-20T17:12:14.931Z,9.32
2019-03-20T17:14:46.292Z,9.34
2019-03-20T17:17:17.605Z,9.31
2019-03-20T17:19:49.513Z,9.19
2019-03-20T17:22:20.942Z,9.15
2019-03-20T17:24:52.238Z,9.08
2019-03-20T17:27:23.665Z,9.06
2019-03-20T17:29:56.916Z,8.96
2019-03-20T17:32:28.530Z,8.84
2019-03-20T17:35:00.454Z,8.84
2019-03-20T17:37:32.678Z,8.79
2019-03-20T17:40:06.963Z,8.84
2019-03-20T17:42:38.114Z,8.84
2019-03-20T17:45:14.764Z,8.83
2019-03-20T17:47:46.044Z,8.83
2019-03-20T17:50:20.736Z,8.73
2019-03-20T17:52:52.215Z,8.75
2019-03-20T17:55:24.902Z,8.68
2019-03-20T17:57:57.882Z,8.73
2019-03-20T18:00:50.070Z,8.64
2019-03-20T18:03:21.613Z,8.59
2019-03-20T18:05:53.166Z,8.50
2019-03-20T18:08:26.254Z,8.30
2019-03-20T18:10:57.921Z,8.24
2019-03-20T18:13:29.305Z,8.12
2019-03-20T18:16:00.610Z,8.09
2019-03-20T18:18:32.128Z,8.01
2019-03-20T18:21:04.677Z,7.99
2019-03-20T18:23:36.458Z,7.96
2019-03-20T18:26:07.919Z,8.06
2019-03-20T18:28:40.928Z,8.03
2019-03-20T18:31:12.426Z,7.97
2019-03-20T18:33:44.232Z,7.95
2019-03-20T18:36:17.021Z,7.91
2019-03-20T18:38:51.025Z,7.84
2019-03-20T18:41:24.552Z,7.77
2019-03-20T18:43:55.923Z,7.76
2019-03-20T18:46:27.261Z,7.66
2019-03-20T18:48:58.601Z,7.59
2019-03-20T18:51:30.318Z,7.60
2019-03-20T18:54:01.774Z,7.59
2019-03-20T18:56:33.011Z,7.52
2019-03-20T18:59:04.678Z,7.51
2019-03-20T19:01:36.066Z,7.49
2019-03-20T19:04:09.088Z,7.48
2019-03-20T19:06:40.691Z,7.36
2019-03-20T19:09:12.269Z,7.16
2019-03-20T19:11:43.785Z,7.19
2019-03-20T19:14:15.070Z,7.19
2019-03-20T19:16:46.327Z,7.23
2019-03-20T19:19:17.598Z,7.19
2019-03-20T19:21:48.873Z,7.16
2019-03-20T19:24:21.928Z,7.07
2019-03-20T19:26:54.001Z,6.95
2019-03-20T19:29:25.274Z,6.94
2019-03-20T19:31:57.607Z,6.90
2019-03-20T19:34:29.013Z,6.91
2019-03-20T19:37:00.621Z,6.86
2019-03-20T19:39:32.038Z,6.71
2019-03-20T19:42:03.626Z,6.72
2019-03-20T19:44:34.959Z,6.78
2019-03-20T19:47:09.520Z,6.85
2019-03-20T19:49:40.890Z,6.78
2019-03-20T19:52:12.089Z,6.79
2019-03-20T19:54:43.425Z,6.80
2019-03-20T19:57:17.485Z,6.82
2019-03-20T19:59:50.173Z,6.73
2019-03-20T20:02:21.467Z,6.72
2019-03-20T20:04:54.591Z,6.83
2019-03-20T20:07:25.951Z,6.84
2019-03-20T20:09:57.789Z,6.80
2019-03-20T20:12:31.367Z,6.75
2019-03-20T20:15:05.022Z,6.75
2019-03-20T20:17:36.641Z,6.75
2019-03-20T20:20:11.246Z,6.71
2019-03-20T20:22:43.475Z,6.74
2019-03-20T20:25:15.894Z,6.69
2019-03-20T20:27:47.989Z,6.65
2019-03-20T20:30:19.930Z,6.66
2019-03-20T20:32:52.148Z,6.70
2019-03-20T20:35:23.695Z,6.60
2019-03-20T20:37:55.078Z,6.61
2019-03-20T20:40:31.274Z,6.61
2019-03-20T20:43:04.415Z,6.61
2019-03-20T20:45:36.689Z,6.61
2019-03-20T20:48:09.035Z,6.61
2019-03-20T20:50:44.562Z,6.63
2019-03-20T20:53:16.357Z,6.60
2019-03-20T20:55:47.661Z,6.65
2019-03-20T20:58:19.013Z,6.66
2019-03-20T21:00:50.436Z,6.64
2019-03-20T21:03:22.034Z,6.56
2019-03-20T21:05:55.467Z,6.54
2019-03-20T21:08:27.075Z,6.52
2019-03-20T21:10:59.882Z,6.55
2019-03-20T21:13:31.675Z,6.55
2019-03-20T21:16:04.614Z,6.48
2019-03-20T21:18:48.190Z,6.54
2019-03-20T21:21:20.359Z,6.49
2019-03-20T21:24:25.446Z,6.46
2019-03-20T21:27:09.321Z,6.49
2019-03-20T21:30:08.025Z,6.47
2019-03-20T21:32:45.789Z,6.44
2019-03-20T21:35:44.936Z,6.48
2019-03-20T21:38:15.413Z,6.46
2019-03-20T21:41:02.128Z,6.51
2019-03-20T21:43:52.984Z,6.53
2019-03-20T21:46:29.932Z,6.39
2019-03-20T21:49:02.646Z,6.39
2019-03-20T21:51:35.167Z,6.39
2019-03-20T21:54:12.518Z,6.49
2019-03-20T21:57:05.501Z,6.45
2019-03-20T21:59:55.128Z,6.45
2019-03-20T22:02:43.771Z,6.47
2019-03-20T22:05:42.804Z,6.44
2019-03-20T22:08:14.061Z,6.44
2019-03-20T22:11:00.287Z,6.39
2019-03-20T22:13:43.575Z,6.32
2019-03-20T22:16:42.821Z,6.28
2019-03-20T22:19:31.747Z,6.30
2019-03-20T22:22:19.438Z,6.22
2019-03-20T22:25:15.426Z,6.27
2019-03-20T22:27:49.944Z,6.31
2019-03-20T22:30:21.315Z,6.28
2019-03-20T22:33:17.522Z,6.31
2019-03-20T22:35:50.052Z,6.34
2019-03-20T22:38:28.596Z,6.28
2019-03-20T22:41:15.568Z,6.24
2019-03-20T22:43:53.425Z,6.36
2019-03-20T22:46:51.527Z,6.25
2019-03-20T22:49:44.258Z,6.20
2019-03-20T22:52:38.282Z,6.22
2019-03-20T22:55:16.793Z,6.20
2019-03-20T22:58:12.972Z,6.12
2019-03-20T23:00:46.331Z,6.17
2019-03-20T23:03:30.934Z,6.17
2019-03-20T23:06:02.483Z,6.17
2019-03-20T23:08:34.388Z,6.21
2019-03-20T23:11:05.801Z,6.19
2019-03-20T23:13:41.758Z,6.14
2019-03-20T23:16:13.047Z,6.15
2019-03-20T23:18:44.599Z,6.09
2019-03-20T23:21:20.865Z,6.12
2019-03-20T23:23:52.056Z,6.06
2019-03-20T23:26:37.827Z,6.05
2019-03-20T23:29:09.042Z,6.03
2019-03-20T23:31:40.420Z,6.03
2019-03-20T23:34:11.715Z,6.01
2019-03-20T23:36:42.850Z,6.03
2019-03-20T23:39:14.113Z,5.98
2019-03-20T23:41:45.545Z,6.01
2019-03-20T23:44:16.828Z,5.99
2019-03-20T23:46:48.318Z,5.96
2019-03-20T23:49:23.683Z,6.00
2019-03-20T23:51:55.818Z,5.96
2019-03-20T23:54:30.330Z,6.03
2019-03-20T23:57:02.697Z,5.97
2019-03-20T23:59:36.255Z,5.93
